createdAt,value
2019-05-07T00:00:14.384Z,15.13
2019-05-07T00:04:18.943Z,16.60
2019-05-07T00:08:23.455Z,16.30
2019-05-07T00:12:28.106Z,16.60
2019-05-07T00:16:32.843Z,16.20
2019-05-07T00:20:37.454Z,17.53
2019-05-07T00:24:42.670Z,16.00
2019-05-07T00:28:47.413Z,15.80
2019-05-07T00:32:53.129Z,14.50
2019-05-07T00:36:59.485Z,16.40
2019-05-07T00:41:05.789Z,14.37
2019-05-07T00:45:19.654Z,15.57
2019-05-07T00:49:19.503Z,15.97
2019-05-07T00:53:24.112Z,15.67
2019-05-07T00:57:28.657Z,15.83
2019-05-07T01:01:33.847Z,17.07
2019-05-07T01:05:38.384Z,15.93
2019-05-07T01:09:43.130Z,16.80
2019-05-07T01:13:47.683Z,15.97
2019-05-07T01:17:52.336Z,16.70
2019-05-07T01:21:56.870Z,16.33
2019-05-07T01:26:03.091Z,16.43
2019-05-07T01:30:08.714Z,14.80
2019-05-07T01:34:14.890Z,18.63
2019-05-07T01:38:20.024Z,17.90
2019-05-07T01:42:24.665Z,17.33
2019-05-07T01:46:29.285Z,16.43
2019-05-07T01:50:34.109Z,17.03
2019-05-07T01:54:38.673Z,16.73
2019-05-07T01:58:43.337Z,15.60
2019-05-07T02:02:49.491Z,16.20
2019-05-07T02:06:58.428Z,16.13
2019-05-07T02:11:04.605Z,15.70
2019-05-07T02:15:11.844Z,15.90
2019-05-07T02:19:16.297Z,14.43
2019-05-07T02:23:22.188Z,14.20
2019-05-07T02:27:26.944Z,13.83
2019-05-07T02:31:33.782Z,14.63
2019-05-07T02:35:37.719Z,15.80
2019-05-07T02:39:46.699Z,15.67
2019-05-07T02:43:53.679Z,15.37
2019-05-07T02:47:57.641Z,15.77
2019-05-07T02:52:09.700Z,15.27
2019-05-07T02:56:14.311Z,16.43
2019-05-07T03:00:19.623Z,15.00
2019-05-07T03:04:24.977Z,15.03
2019-05-07T03:08:32.856Z,14.37
2019-05-07T03:12:36.289Z,13.83
2019-05-07T03:16:45.395Z,15.37
2019-05-07T03:20:48.172Z,13.57
2019-05-07T03:24:54.171Z,15.57
2019-05-07T03:29:00.120Z,14.20
2019-05-07T03:33:09.085Z,12.43
2019-05-07T03:37:15.128Z,14.97
2019-05-07T03:41:22.675Z,16.47
2019-05-07T03:49:36.655Z,13.83
2019-05-07T03:53:43.495Z,14.90
2019-05-07T03:57:46.873Z,13.60
2019-05-07T04:01:53.826Z,15.20
2019-05-07T04:05:57.417Z,13.70
2019-05-07T04:10:04.382Z,14.17
2019-05-07T04:14:08.119Z,14.43
2019-05-07T04:18:13.091Z,14.13
2019-05-07T04:22:19.405Z,12.97
2019-05-07T04:26:25.402Z,14.43
2019-05-07T04:30:33.042Z,15.67
2019-05-07T04:34:53.628Z,16.00
2019-05-07T04:38:57.975Z,15.37
2019-05-07T04:43:02.951Z,16.30
2019-05-07T04:47:07.250Z,16.53
2019-05-07T04:51:13.159Z,14.43
2019-05-07T04:55:17.415Z,17.13
2019-05-07T04:59:23.831Z,14.47
2019-05-07T05:03:28.458Z,14.37
2019-05-07T05:07:33.500Z,16.67
2019-05-07T05:11:37.974Z,17.17
2019-05-07T05:15:43.176Z,16.70
2019-05-07T05:19:47.688Z,16.50
2019-05-07T05:23:53.919Z,14.70
2019-05-07T05:27:58.492Z,16.90
2019-05-07T05:32:03.426Z,16.57
2019-05-07T05:36:08.046Z,17.37
2019-05-07T05:40:12.896Z,19.07
2019-05-07T05:44:22.759Z,18.03
2019-05-07T05:48:27.501Z,19.43
2019-05-07T05:52:33.794Z,17.60
2019-05-07T05:56:42.805Z,18.77
2019-05-07T06:00:54.923Z,18.93
2019-05-07T06:05:06.698Z,24.70
2019-05-07T06:09:18.547Z,23.70
2019-05-07T06:13:27.903Z,23.10
2019-05-07T06:17:37.238Z,22.07
2019-05-07T06:21:55.673Z,21.43
2019-05-07T06:26:05.051Z,22.13
2019-05-07T06:30:12.093Z,20.93
2019-05-07T06:34:16.879Z,22.60
2019-05-07T06:38:22.203Z,22.17
2019-05-07T06:42:33.227Z,19.13
2019-05-07T06:46:38.874Z,18.37
2019-05-07T06:50:45.211Z,15.57
2019-05-07T06:54:49.756Z,16.80
2019-05-07T06:58:58.946Z,17.23
2019-05-07T07:03:05.254Z,16.13
2019-05-07T07:07:29.648Z,15.57
2019-05-07T07:11:36.945Z,15.33
2019-05-07T07:15:42.699Z,15.80
2019-05-07T07:19:47.560Z,13.63
2019-05-07T07:23:52.439Z,15.20
2019-05-07T07:27:57.236Z,13.00
2019-05-07T07:32:06.134Z,13.90
2019-05-07T07:36:12.015Z,13.53
2019-05-07T07:40:25.086Z,13.73
2019-05-07T07:44:29.893Z,15.50
2019-05-07T07:48:34.532Z,15.60
2019-05-07T07:52:39.143Z,14.23
2019-05-07T07:56:53.000Z,13.37
2019-05-07T08:01:05.536Z,12.57
2019-05-07T08:05:12.380Z,12.97
2019-05-07T08:09:16.752Z,14.67
2019-05-07T08:13:22.904Z,11.97
2019-05-07T08:17:27.622Z,11.87
2019-05-07T08:21:33.178Z,12.60
2019-05-07T08:25:39.747Z,12.53
2019-05-07T08:29:44.294Z,13.67
2019-05-07T08:33:51.818Z,12.63
2019-05-07T08:37:56.444Z,12.80
2019-05-07T08:42:02.037Z,12.57
2019-05-07T08:46:22.216Z,12.77
2019-05-07T08:50:26.623Z,13.93
2019-05-07T08:54:32.286Z,13.20
2019-05-07T08:58:36.901Z,14.47
2019-05-07T09:02:42.069Z,14.60
2019-05-07T09:06:46.900Z,14.47
2019-05-07T09:10:52.520Z,13.43
2019-05-07T09:14:57.166Z,12.57
2019-05-07T09:19:02.201Z,13.50
2019-05-07T09:23:06.850Z,12.17
2019-05-07T09:27:22.394Z,12.67
2019-05-07T09:31:28.755Z,14.90
2019-05-07T09:35:39.725Z,13.83
2019-05-07T09:39:44.287Z,13.70
2019-05-07T09:43:48.907Z,13.80
2019-05-07T09:47:53.546Z,13.50
2019-05-07T09:51:58.194Z,12.87
2019-05-07T09:56:02.807Z,12.23
2019-05-07T10:00:08.571Z,12.50
2019-05-07T10:04:13.201Z,11.93
2019-05-07T10:08:17.885Z,13.17
2019-05-07T10:12:27.127Z,12.30
2019-05-07T10:16:49.759Z,12.07
2019-05-07T10:20:54.648Z,14.27
2019-05-07T10:24:59.247Z,11.93
2019-05-07T10:29:03.992Z,14.57
2019-05-07T10:33:08.628Z,15.03
2019-05-07T10:37:13.354Z,14.77
2019-05-07T10:41:18.071Z,15.97
2019-05-07T10:45:27.055Z,13.70
2019-05-07T10:49:33.371Z,12.90
2019-05-07T10:53:38.055Z,12.97
2019-05-07T10:57:42.894Z,14.40
2019-05-07T11:01:49.139Z,14.40
2019-05-07T11:05:53.778Z,16.80
2019-05-07T11:09:58.432Z,15.43
2019-05-07T11:14:03.366Z,15.57
2019-05-07T11:18:12.610Z,15.50
2019-05-07T11:22:17.361Z,14.80
2019-05-07T11:26:22.180Z,12.40
2019-05-07T11:30:27.390Z,12.27
2019-05-07T11:34:33.665Z,13.13
2019-05-07T11:38:38.282Z,13.23
2019-05-07T11:43:02.452Z,13.20
2019-05-07T11:47:12.315Z,12.03
2019-05-07T11:51:23.119Z,13.40
2019-05-07T11:55:27.837Z,12.00
2019-05-07T11:59:32.676Z,10.93
2019-05-07T12:03:37.359Z,10.27
2019-05-07T12:07:42.013Z,12.93
2019-05-07T12:11:46.615Z,11.17
2019-05-07T12:15:52.231Z,11.10
2019-05-07T12:19:57.039Z,11.30
2019-05-07T12:24:02.139Z,9.37
2019-05-07T12:28:07.173Z,9.40
2019-05-07T12:32:22.584Z,9.80
2019-05-07T12:36:27.525Z,10.50
2019-05-07T12:40:32.574Z,9.13
2019-05-07T12:44:37.234Z,10.33
2019-05-07T12:48:41.906Z,9.50
2019-05-07T12:53:03.284Z,10.00
2019-05-07T12:57:08.010Z,7.90
2019-05-07T13:01:17.459Z,7.00
2019-05-07T13:05:22.178Z,7.50
2019-05-07T13:09:26.727Z,7.97
2019-05-07T13:13:32.051Z,8.00
2019-05-07T13:17:36.739Z,9.17
2019-05-07T13:21:49.181Z,8.17
2019-05-07T13:25:47.588Z,8.10
2019-05-07T13:29:53.122Z,9.03
2019-05-07T13:34:00.180Z,8.33
2019-05-07T13:38:06.527Z,8.70
2019-05-07T13:42:12.744Z,10.13
2019-05-07T13:46:17.394Z,8.40
2019-05-07T13:50:22.171Z,7.17
2019-05-07T13:54:26.982Z,5.23
2019-05-07T13:58:32.941Z,5.67
2019-05-07T14:02:37.736Z,5.67
2019-05-07T14:06:43.137Z,5.70
2019-05-07T14:10:48.100Z,5.43
2019-05-07T14:14:53.244Z,5.33
2019-05-07T14:18:57.875Z,6.40
2019-05-07T14:23:02.415Z,6.70
2019-05-07T14:27:07.107Z,5.57
2019-05-07T14:31:12.325Z,6.37
2019-05-07T14:35:32.188Z,6.60
2019-05-07T14:39:37.068Z,6.30
2019-05-07T14:43:43.351Z,6.20
2019-05-07T14:47:48.144Z,6.90
2019-05-07T14:51:54.069Z,7.73
2019-05-07T14:55:59.192Z,7.60
2019-05-07T15:00:06.499Z,6.27
2019-05-07T15:04:12.933Z,6.25
2019-05-07T15:08:17.675Z,7.07
2019-05-07T15:12:23.341Z,6.70
2019-05-07T15:16:28.511Z,7.87
2019-05-07T15:20:33.189Z,8.03
2019-05-07T15:24:37.893Z,6.80
2019-05-07T15:28:44.492Z,8.10
2019-05-07T15:32:49.035Z,7.07
2019-05-07T15:36:53.660Z,6.67
2019-05-07T15:40:58.324Z,6.50
2019-05-07T15:45:03.155Z,6.87
2019-05-07T15:49:07.747Z,6.43
2019-05-07T15:53:13.912Z,8.00
2019-05-07T15:57:29.059Z,7.70
2019-05-07T16:01:33.630Z,7.10
2019-05-07T16:05:38.231Z,7.43
2019-05-07T16:09:43.384Z,7.27
2019-05-07T16:13:49.884Z,6.77
2019-05-07T16:17:59.295Z,7.63
2019-05-07T16:22:05.807Z,7.23
2019-05-07T16:26:12.958Z,6.60
2019-05-07T16:30:17.635Z,9.00
2019-05-07T16:34:24.607Z,7.37
2019-05-07T16:38:28.521Z,7.37
2019-05-07T16:42:33.152Z,7.60
2019-05-07T16:46:37.742Z,7.63
2019-05-07T16:50:42.348Z,7.13
2019-05-07T16:54:46.922Z,7.20
2019-05-07T16:58:53.108Z,6.57
2019-05-07T17:02:59.494Z,6.33
2019-05-07T17:07:05.837Z,7.43
2019-05-07T17:11:12.119Z,6.67
2019-05-07T17:15:17.398Z,6.40
2019-05-07T17:19:22.481Z,6.20
2019-05-07T17:23:34.434Z,6.53
2019-05-07T17:27:33.742Z,6.33
2019-05-07T17:31:38.343Z,6.37
2019-05-07T17:35:42.941Z,6.70
2019-05-07T17:39:47.589Z,6.33
2019-05-07T17:43:52.502Z,6.00
2019-05-07T17:47:57.110Z,6.77
2019-05-07T17:52:02.973Z,5.70
2019-05-07T17:56:07.744Z,5.50
2019-05-07T18:00:13.934Z,7.07
2019-05-07T18:04:18.467Z,7.93
2019-05-07T18:08:23.129Z,7.00
2019-05-07T18:12:27.909Z,6.27
2019-05-07T18:16:37.050Z,6.13
2019-05-07T18:20:42.197Z,6.23
2019-05-07T18:24:47.091Z,6.27
2019-05-07T18:28:52.206Z,6.93
2019-05-07T18:32:58.566Z,4.70
2019-05-07T18:37:03.091Z,5.23
2019-05-07T18:41:08.010Z,6.40
2019-05-07T18:45:12.782Z,5.20
2019-05-07T18:49:17.340Z,5.80
2019-05-07T18:53:22.707Z,5.87
2019-05-07T18:57:27.640Z,5.57
2019-05-07T19:01:34.113Z,5.13
2019-05-07T19:05:38.733Z,5.13
2019-05-07T19:09:43.344Z,5.63
2019-05-07T19:13:47.909Z,5.03
2019-05-07T19:17:52.931Z,5.23
2019-05-07T19:21:57.932Z,5.90
2019-05-07T19:26:02.601Z,5.90
2019-05-07T19:30:09.114Z,6.07
2019-05-07T19:34:13.722Z,5.23
2019-05-07T19:38:18.357Z,5.40
2019-05-07T19:42:22.988Z,5.80
2019-05-07T19:46:27.600Z,6.30
2019-05-07T19:50:32.479Z,5.53
2019-05-07T19:54:37.197Z,6.37
2019-05-07T19:58:42.048Z,6.50
2019-05-07T20:02:48.443Z,6.70
2019-05-07T20:06:53.039Z,6.53
2019-05-07T20:10:59.676Z,7.97
2019-05-07T20:15:05.943Z,8.90
2019-05-07T20:19:12.108Z,8.83
2019-05-07T20:23:16.990Z,10.13
2019-05-07T20:27:23.178Z,9.23
2019-05-07T20:31:28.161Z,8.57
2019-05-07T20:35:32.947Z,9.10
2019-05-07T20:39:37.566Z,8.07
2019-05-07T20:43:42.900Z,7.40
2019-05-07T20:47:47.612Z,9.70
2019-05-07T20:51:52.624Z,8.80
2019-05-07T20:55:58.915Z,8.30
2019-05-07T21:00:05.669Z,9.17
2019-05-07T21:04:12.644Z,9.27
2019-05-07T21:08:16.638Z,9.97
2019-05-07T21:12:22.565Z,11.13
2019-05-07T21:16:27.421Z,11.53
2019-05-07T21:20:32.429Z,10.70
2019-05-07T21:24:37.072Z,8.97
2019-05-07T21:28:43.100Z,12.00
2019-05-07T21:32:48.214Z,10.27
2019-05-07T21:36:52.917Z,10.70
2019-05-07T21:40:57.466Z,10.20
2019-05-07T21:45:02.236Z,10.63
2019-05-07T21:49:08.299Z,10.97
2019-05-07T21:53:22.805Z,10.90
2019-05-07T21:57:32.951Z,10.47
2019-05-07T22:01:39.264Z,9.40
2019-05-07T22:05:44.421Z,9.40
2019-05-07T22:09:49.062Z,11.23
2019-05-07T22:13:54.838Z,10.87
2019-05-07T22:17:59.877Z,11.10
2019-05-07T22:22:06.064Z,9.43
2019-05-07T22:26:20.387Z,10.10
2019-05-07T22:30:36.091Z,11.30
2019-05-07T22:34:42.548Z,9.80
2019-05-07T22:38:47.514Z,8.80
2019-05-07T22:42:52.036Z,8.80
2019-05-07T22:46:58.395Z,9.27
2019-05-07T22:51:03.131Z,9.17
2019-05-07T22:55:07.867Z,8.13
2019-05-07T22:59:14.691Z,6.97
2019-05-07T23:03:18.663Z,7.00
2019-05-07T23:07:23.345Z,8.67
2019-05-07T23:11:28.139Z,8.87
2019-05-07T23:15:32.719Z,7.17
2019-05-07T23:19:37.351Z,7.20
2019-05-07T23:23:42.379Z,6.70
2019-05-07T23:27:47.091Z,7.57
2019-05-07T23:31:52.786Z,8.10
2019-05-07T23:35:58.207Z,8.33
2019-05-07T23:40:04.747Z,8.10
2019-05-07T23:44:13.823Z,6.63
2019-05-07T23:48:18.326Z,5.20
2019-05-07T23:52:22.980Z,5.70
2019-05-07T23:56:27.620Z,6.97
